Tropical Cyclones
[Index]
Main Index Home Page Stock Weather Photos Extreme Storms Discussion Storm News and Storm Chasing Reports Tropical Cyclones / Hurricanes / Typhoons Weather Data and Links Wild Fires / Bushfires Weather Observation Techniques Weather Picture Catalogue Tornado Pictures and Reports Stock Video Footage and DVDs for sale
Season 2006-2007 Tropical Cyclone JAYA Track Map
Season 2006-2007 Summaries: [BoM-AU] [JTWC-AU] [JTWC-SIO] [JTWC-SPAC] [JTWC-SH]
<<- Previous TC | JTWC 2006-2007 Season | Next TC ->>

click for intensity scale information  Lat/long Grid: Show Hide

 Date Labels: Show Hide

Joint Typhoon Warning Centre Cyclone Data

Name: JAYA

28 Mar 2007 00:00 UTC to 08 Apr 2007 06:00 UTC

    date/time    lat    long     hPa   cat  kts
2007-03-28 00   13.4    76.0    1010         15          
2007-03-28 06   13.4    74.2    1006         15          
2007-03-28 12   13.5    72.7    1006         15          
2007-03-28 18   13.5    71.4    1004         25          
2007-03-29 00   13.5    70.5    1002         25          
2007-03-29 06   13.5    69.6    1002         25          
2007-03-29 12   13.4    68.9    1000         30          
2007-03-29 18   13.1    68.3    1000         30          
2007-03-30 00   13.1    67.5     996         35          
2007-03-30 06   13.2    66.9     989    1    45          
2007-03-30 12   13.4    66.2     982    2    55          
2007-03-30 12   13.4    66.2     982    2    55          
2007-03-30 18   13.6    65.6     978    2    60          
2007-03-30 18   13.6    65.6     978    2    60          
2007-03-31 00   13.9    64.8     967    3    75          
2007-03-31 00   13.9    64.8     967    3    75          
2007-03-31 00   13.9    64.8     967    3    75          
2007-03-31 06   14.2    63.8     956    3    90          
2007-03-31 06   14.2    63.8     956    3    90          
2007-03-31 06   14.2    63.8     956    3    90          
2007-03-31 12   14.5    62.7     948    4   100          
2007-03-31 12   14.5    62.7     948    4   100          
2007-03-31 12   14.5    62.7     948    4   100          
2007-03-31 18   14.7    61.5     944    4   105          
2007-03-31 18   14.7    61.5     944    4   105          
2007-03-31 18   14.7    61.5     944    4   105          
2007-04-01 00   14.8    60.3     941    4   110          
2007-04-01 00   14.8    60.3     941    4   110          
2007-04-01 00   14.8    60.3     941    4   110          
2007-04-01 06   15.0    59.1     948    4   100          
2007-04-01 06   15.0    59.1     948    4   100          
2007-04-01 06   15.0    59.1     948    4   100          
2007-04-01 12   15.1    57.9     948    4   100          
2007-04-01 12   15.1    57.9     948    4   100          
2007-04-01 12   15.1    57.9     948    4   100          
2007-04-01 18   15.1    56.8     952    3    95          
2007-04-01 18   15.1    56.8     952    3    95          
2007-04-01 18   15.1    56.8     952    3    95          
2007-04-02 00   15.0    55.7     952    3    95          
2007-04-02 00   15.0    55.7     952    3    95          
2007-04-02 00   15.0    55.7     952    3    95          
2007-04-02 06   15.2    54.6     948    4   100          
2007-04-02 06   15.2    54.6     948    4   100          
2007-04-02 06   15.2    54.6     948    4   100          
2007-04-02 12   15.3    53.6     944    4   105          
2007-04-02 12   15.3    53.6     944    4   105          
2007-04-02 12   15.3    53.6     944    4   105          
2007-04-02 18   15.1    52.6     944    4   105          
2007-04-02 18   15.1    52.6     944    4   105          
2007-04-02 18   15.1    52.6     944    4   105          
2007-04-03 00   14.9    51.6     952    3    95          
2007-04-03 00   14.9    51.6     952    3    95          
2007-04-03 00   14.9    51.6     952    3    95          
2007-04-03 06   14.6    50.5     963    3    80          
2007-04-03 06   14.6    50.5     963    3    80          
2007-04-03 06   14.6    50.5     963    3    80          
2007-04-03 12   14.6    49.4     974    2    65          
2007-04-03 12   14.6    49.4     974    2    65          
2007-04-03 18   14.9    48.1     982    2    55          
2007-04-03 18   14.9    48.1     982    2    55          
2007-04-04 00   15.0    47.1     991    1    45          
2007-04-04 06   13.3    45.3    1004         25          
2007-04-04 12   13.8    44.0    1004         25          
2007-04-04 18   14.2    43.2    1004         20          
2007-04-05 00   14.3    42.7    1004         20          
2007-04-05 06   14.5    41.9    1002         25          
2007-04-05 12   15.0    41.6    1000         30          
2007-04-05 18   15.6    41.4    1000         30          
2007-04-06 00   16.6    40.8    1000         30          
2007-04-06 06   16.7    40.5    1000         30          
2007-04-06 12   17.0    40.1    1000         30          
2007-04-06 18   17.2    39.8    1000         30          
2007-04-07 00   17.8    39.6    1002         25          
2007-04-07 06   18.2    39.7    1002         25          
2007-04-07 12   18.5    40.3    1002         25          
2007-04-07 18   18.4    41.2    1002         25          
2007-04-08 00   17.7    40.7    1002         25          
2007-04-08 06   17.3    40.4    1002         25          
Winds are 1-min average.

Tropical cyclone tracks developed by Michael Bath using data from the Joint Typhoon Warning Centre Best Tracks and Google Maps.


[Australian Severe Weather index] [Copyright Notice] [Email Contacts] [Search This Site] [Privacy Policy]
Document: tropical_cyclone_jaya.htm Updated: 28 June 2017